sensor_id;sensor_type;location;lat;lon;timestamp;P1;durP1;ratioP1;P2;durP2;ratioP2
18732;SDS011;9495;51.210;2.934;2022-07-15T00:01:32;10.00;;;2.45;;
18732;SDS011;9495;51.210;2.934;2022-07-15T00:04:01;8.82;;;2.53;;
18732;SDS011;9495;51.210;2.934;2022-07-15T00:06:29;8.82;;;2.42;;
18732;SDS011;9495;51.210;2.934;2022-07-15T00:08:58;8.80;;;2.70;;
18732;SDS011;9495;51.210;2.934;2022-07-15T00:11:26;5.60;;;2.00;;
18732;SDS011;9495;51.210;2.934;2022-07-15T00:13:54;9.60;;;2.63;;
18732;SDS011;9495;51.210;2.934;2022-07-15T00:16:30;7.78;;;2.30;;
18732;SDS011;9495;51.210;2.934;2022-07-15T00:18:58;6.85;;;2.50;;
18732;SDS011;9495;51.210;2.934;2022-07-15T00:21:27;4.60;;;2.05;;
18732;SDS011;9495;51.210;2.934;2022-07-15T00:23:55;5.47;;;2.20;;
18732;SDS011;9495;51.210;2.934;2022-07-15T00:26:25;5.88;;;1.77;;
18732;SDS011;9495;51.210;2.934;2022-07-15T00:29:00;9.13;;;1.98;;
18732;SDS011;9495;51.210;2.934;2022-07-15T00:31:29;7.80;;;2.25;;
18732;SDS011;9495;51.210;2.934;2022-07-15T00:33:58;8.75;;;2.00;;
18732;SDS011;9495;51.210;2.934;2022-07-15T00:36:28;7.32;;;2.30;;
18732;SDS011;9495;51.210;2.934;2022-07-15T00:38:56;5.03;;;2.05;;
18732;SDS011;9495;51.210;2.934;2022-07-15T00:41:24;9.43;;;2.20;;
18732;SDS011;9495;51.210;2.934;2022-07-15T00:43:53;10.15;;;2.28;;
18732;SDS011;9495;51.210;2.934;2022-07-15T00:46:22;5.72;;;2.20;;
18732;SDS011;9495;51.210;2.934;2022-07-15T00:48:51;5.15;;;1.90;;
18732;SDS011;9495;51.210;2.934;2022-07-15T00:51:20;6.28;;;2.25;;
18732;SDS011;9495;51.210;2.934;2022-07-15T00:53:48;9.85;;;2.05;;
18732;SDS011;9495;51.210;2.934;2022-07-15T00:56:18;7.72;;;2.13;;
18732;SDS011;9495;51.210;2.934;2022-07-15T00:58:52;4.75;;;2.20;;
18732;SDS011;9495;51.210;2.934;2022-07-15T01:01:21;6.78;;;1.98;;
18732;SDS011;9495;51.210;2.934;2022-07-15T01:03:51;6.10;;;2.25;;
18732;SDS011;9495;51.210;2.934;2022-07-15T01:06:21;6.38;;;2.42;;
18732;SDS011;9495;51.210;2.934;2022-07-15T01:08:50;8.65;;;2.92;;
18732;SDS011;9495;51.210;2.934;2022-07-15T01:11:18;9.40;;;2.75;;
18732;SDS011;9495;51.210;2.934;2022-07-15T01:13:47;7.10;;;3.10;;
18732;SDS011;9495;51.210;2.934;2022-07-15T01:16:16;5.97;;;2.75;;
18732;SDS011;9495;51.210;2.934;2022-07-15T01:18:44;5.90;;;3.13;;
18732;SDS011;9495;51.210;2.934;2022-07-15T01:21:14;8.43;;;3.05;;
18732;SDS011;9495;51.210;2.934;2022-07-15T01:23:44;9.07;;;2.90;;
18732;SDS011;9495;51.210;2.934;2022-07-15T01:26:14;8.57;;;3.00;;
18732;SDS011;9495;51.210;2.934;2022-07-15T01:28:43;7.72;;;3.10;;
18732;SDS011;9495;51.210;2.934;2022-07-15T01:31:14;9.85;;;3.38;;
18732;SDS011;9495;51.210;2.934;2022-07-15T01:33:43;6.75;;;2.97;;
18732;SDS011;9495;51.210;2.934;2022-07-15T01:36:14;8.52;;;3.25;;
18732;SDS011;9495;51.210;2.934;2022-07-15T01:38:42;13.55;;;3.33;;
18732;SDS011;9495;51.210;2.934;2022-07-15T01:41:31;7.55;;;3.20;;
18732;SDS011;9495;51.210;2.934;2022-07-15T01:43:59;10.55;;;3.22;;
18732;SDS011;9495;51.210;2.934;2022-07-15T01:46:28;10.57;;;3.65;;
18732;SDS011;9495;51.210;2.934;2022-07-15T01:48:57;8.07;;;3.58;;
18732;SDS011;9495;51.210;2.934;2022-07-15T01:51:46;7.80;;;4.75;;
18732;SDS011;9495;51.210;2.934;2022-07-15T01:54:17;9.98;;;4.68;;
18732;SDS011;9495;51.210;2.934;2022-07-15T01:56:45;9.70;;;4.93;;
18732;SDS011;9495;51.210;2.934;2022-07-15T01:59:14;11.82;;;5.25;;
18732;SDS011;9495;51.210;2.934;2022-07-15T02:01:42;9.23;;;4.97;;
18732;SDS011;9495;51.210;2.934;2022-07-15T02:04:11;12.27;;;5.00;;
18732;SDS011;9495;51.210;2.934;2022-07-15T02:06:40;11.93;;;5.60;;
18732;SDS011;9495;51.210;2.934;2022-07-15T02:09:13;10.20;;;5.88;;
18732;SDS011;9495;51.210;2.934;2022-07-15T02:11:42;12.65;;;5.90;;
18732;SDS011;9495;51.210;2.934;2022-07-15T02:14:10;15.18;;;5.95;;
18732;SDS011;9495;51.210;2.934;2022-07-15T02:16:39;11.30;;;6.13;;
18732;SDS011;9495;51.210;2.934;2022-07-15T02:19:07;10.48;;;5.75;;
18732;SDS011;9495;51.210;2.934;2022-07-15T02:21:36;10.05;;;5.05;;
18732;SDS011;9495;51.210;2.934;2022-07-15T02:24:04;12.70;;;5.60;;
18732;SDS011;9495;51.210;2.934;2022-07-15T02:26:35;12.95;;;5.13;;
18732;SDS011;9495;51.210;2.934;2022-07-15T02:29:03;12.95;;;5.22;;
18732;SDS011;9495;51.210;2.934;2022-07-15T02:31:32;14.60;;;5.60;;
18732;SDS011;9495;51.210;2.934;2022-07-15T02:34:02;10.98;;;4.97;;
18732;SDS011;9495;51.210;2.934;2022-07-15T02:36:31;11.93;;;4.70;;
18732;SDS011;9495;51.210;2.934;2022-07-15T02:39:00;11.27;;;5.18;;
18732;SDS011;9495;51.210;2.934;2022-07-15T02:41:30;9.98;;;4.80;;
18732;SDS011;9495;51.210;2.934;2022-07-15T02:44:00;9.38;;;4.28;;
18732;SDS011;9495;51.210;2.934;2022-07-15T02:46:28;10.52;;;4.90;;
18732;SDS011;9495;51.210;2.934;2022-07-15T02:48:58;12.43;;;4.65;;
18732;SDS011;9495;51.210;2.934;2022-07-15T02:51:26;12.85;;;4.82;;
18732;SDS011;9495;51.210;2.934;2022-07-15T02:53:54;13.07;;;5.47;;
18732;SDS011;9495;51.210;2.934;2022-07-15T02:56:23;10.55;;;4.85;;
18732;SDS011;9495;51.210;2.934;2022-07-15T02:58:51;9.60;;;4.60;;
18732;SDS011;9495;51.210;2.934;2022-07-15T03:01:21;9.63;;;4.45;;
18732;SDS011;9495;51.210;2.934;2022-07-15T03:03:49;11.77;;;5.47;;
18732;SDS011;9495;51.210;2.934;2022-07-15T03:06:20;10.38;;;4.50;;
18732;SDS011;9495;51.210;2.934;2022-07-15T03:08:48;11.02;;;5.70;;
18732;SDS011;9495;51.210;2.934;2022-07-15T03:11:17;12.55;;;5.32;;
18732;SDS011;9495;51.210;2.934;2022-07-15T03:13:45;10.98;;;5.78;;
18732;SDS011;9495;51.210;2.934;2022-07-15T03:16:17;11.45;;;5.68;;
18732;SDS011;9495;51.210;2.934;2022-07-15T03:18:47;11.52;;;5.47;;
18732;SDS011;9495;51.210;2.934;2022-07-15T03:21:15;13.05;;;5.40;;
18732;SDS011;9495;51.210;2.934;2022-07-15T03:23:43;11.10;;;5.50;;
18732;SDS011;9495;51.210;2.934;2022-07-15T03:26:12;10.05;;;5.47;;
18732;SDS011;9495;51.210;2.934;2022-07-15T03:28:40;13.85;;;5.47;;
18732;SDS011;9495;51.210;2.934;2022-07-15T03:31:08;8.52;;;5.20;;
18732;SDS011;9495;51.210;2.934;2022-07-15T03:33:38;10.43;;;6.03;;
18732;SDS011;9495;51.210;2.934;2022-07-15T03:36:08;10.75;;;6.03;;
18732;SDS011;9495;51.210;2.934;2022-07-15T03:38:36;12.35;;;5.70;;
18732;SDS011;9495;51.210;2.934;2022-07-15T03:41:05;13.20;;;5.30;;
18732;SDS011;9495;51.210;2.934;2022-07-15T03:43:33;15.02;;;5.78;;
18732;SDS011;9495;51.210;2.934;2022-07-15T03:46:02;10.48;;;5.30;;
18732;SDS011;9495;51.210;2.934;2022-07-15T03:48:30;8.70;;;5.63;;
18732;SDS011;9495;51.210;2.934;2022-07-15T03:50:59;12.55;;;5.80;;
18732;SDS011;9495;51.210;2.934;2022-07-15T03:53:28;11.97;;;5.33;;
18732;SDS011;9495;51.210;2.934;2022-07-15T03:55:56;13.07;;;5.50;;
18732;SDS011;9495;51.210;2.934;2022-07-15T03:58:25;14.55;;;5.50;;
18732;SDS011;9495;51.210;2.934;2022-07-15T04:00:54;14.20;;;5.40;;
18732;SDS011;9495;51.210;2.934;2022-07-15T04:03:23;8.93;;;5.10;;
18732;SDS011;9495;51.210;2.934;2022-07-15T04:05:52;9.85;;;5.72;;
18732;SDS011;9495;51.210;2.934;2022-07-15T04:08:20;11.10;;;5.87;;
18732;SDS011;9495;51.210;2.934;2022-07-15T04:10:50;9.35;;;5.28;;
18732;SDS011;9495;51.210;2.934;2022-07-15T04:13:18;12.80;;;5.25;;
18732;SDS011;9495;51.210;2.934;2022-07-15T04:15:46;11.88;;;5.57;;
18732;SDS011;9495;51.210;2.934;2022-07-15T04:18:15;12.83;;;5.33;;
18732;SDS011;9495;51.210;2.934;2022-07-15T04:20:44;14.38;;;5.22;;
18732;SDS011;9495;51.210;2.934;2022-07-15T04:23:12;17.63;;;5.30;;
18732;SDS011;9495;51.210;2.934;2022-07-15T04:25:41;8.70;;;5.50;;
18732;SDS011;9495;51.210;2.934;2022-07-15T04:28:11;12.63;;;5.43;;
18732;SDS011;9495;51.210;2.934;2022-07-15T04:30:39;14.85;;;6.40;;
18732;SDS011;9495;51.210;2.934;2022-07-15T04:33:07;9.98;;;6.22;;
18732;SDS011;9495;51.210;2.934;2022-07-15T04:35:35;13.35;;;7.25;;
18732;SDS011;9495;51.210;2.934;2022-07-15T04:38:04;12.40;;;6.78;;
18732;SDS011;9495;51.210;2.934;2022-07-15T04:40:34;10.43;;;6.55;;
18732;SDS011;9495;51.210;2.934;2022-07-15T04:43:11;15.18;;;7.35;;
18732;SDS011;9495;51.210;2.934;2022-07-15T04:45:40;13.02;;;7.32;;
18732;SDS011;9495;51.210;2.934;2022-07-15T04:48:08;14.13;;;7.05;;
18732;SDS011;9495;51.210;2.934;2022-07-15T04:50:51;16.25;;;7.50;;
18732;SDS011;9495;51.210;2.934;2022-07-15T04:53:19;14.25;;;7.15;;
18732;SDS011;9495;51.210;2.934;2022-07-15T04:55:48;14.18;;;6.30;;
18732;SDS011;9495;51.210;2.934;2022-07-15T04:58:18;21.95;;;7.82;;
18732;SDS011;9495;51.210;2.934;2022-07-15T05:00:46;14.23;;;7.00;;
18732;SDS011;9495;51.210;2.934;2022-07-15T05:03:14;14.80;;;7.30;;
18732;SDS011;9495;51.210;2.934;2022-07-15T05:05:43;11.77;;;7.15;;
18732;SDS011;9495;51.210;2.934;2022-07-15T05:08:12;13.27;;;6.90;;
18732;SDS011;9495;51.210;2.934;2022-07-15T05:10:40;16.08;;;6.45;;
18732;SDS011;9495;51.210;2.934;2022-07-15T05:13:08;15.68;;;6.97;;
18732;SDS011;9495;51.210;2.934;2022-07-15T05:15:38;10.85;;;6.22;;
18732;SDS011;9495;51.210;2.934;2022-07-15T05:18:07;13.57;;;6.63;;
18732;SDS011;9495;51.210;2.934;2022-07-15T05:20:35;12.55;;;6.10;;
18732;SDS011;9495;51.210;2.934;2022-07-15T05:23:04;10.50;;;6.20;;
18732;SDS011;9495;51.210;2.934;2022-07-15T05:25:32;15.75;;;6.18;;
18732;SDS011;9495;51.210;2.934;2022-07-15T05:28:00;13.45;;;6.97;;
18732;SDS011;9495;51.210;2.934;2022-07-15T05:30:29;12.63;;;6.00;;
18732;SDS011;9495;51.210;2.934;2022-07-15T05:32:58;12.85;;;6.18;;
18732;SDS011;9495;51.210;2.934;2022-07-15T05:35:27;14.00;;;6.00;;
18732;SDS011;9495;51.210;2.934;2022-07-15T05:37:56;8.80;;;5.25;;
18732;SDS011;9495;51.210;2.934;2022-07-15T05:40:24;13.32;;;6.32;;
18732;SDS011;9495;51.210;2.934;2022-07-15T05:42:52;14.23;;;5.97;;
18732;SDS011;9495;51.210;2.934;2022-07-15T05:45:21;13.57;;;5.70;;
18732;SDS011;9495;51.210;2.934;2022-07-15T05:47:50;10.95;;;4.85;;
18732;SDS011;9495;51.210;2.934;2022-07-15T05:50:19;9.38;;;4.90;;
18732;SDS011;9495;51.210;2.934;2022-07-15T05:52:48;12.50;;;4.97;;
18732;SDS011;9495;51.210;2.934;2022-07-15T05:55:16;10.38;;;4.80;;
18732;SDS011;9495;51.210;2.934;2022-07-15T05:57:45;10.25;;;3.92;;
18732;SDS011;9495;51.210;2.934;2022-07-15T06:00:13;8.55;;;4.35;;
18732;SDS011;9495;51.210;2.934;2022-07-15T06:02:42;9.18;;;4.20;;
18732;SDS011;9495;51.210;2.934;2022-07-15T06:05:11;10.85;;;4.45;;
18732;SDS011;9495;51.210;2.934;2022-07-15T06:07:41;8.25;;;4.00;;
18732;SDS011;9495;51.210;2.934;2022-07-15T06:10:09;6.72;;;2.97;;
18732;SDS011;9495;51.210;2.934;2022-07-15T06:12:38;12.48;;;3.40;;
18732;SDS011;9495;51.210;2.934;2022-07-15T06:15:07;8.18;;;3.13;;
18732;SDS011;9495;51.210;2.934;2022-07-15T06:17:36;6.63;;;2.63;;
18732;SDS011;9495;51.210;2.934;2022-07-15T06:20:05;6.65;;;3.10;;
18732;SDS011;9495;51.210;2.934;2022-07-15T06:22:37;6.25;;;3.05;;
18732;SDS011;9495;51.210;2.934;2022-07-15T06:25:08;5.25;;;2.22;;
18732;SDS011;9495;51.210;2.934;2022-07-15T06:27:36;10.02;;;3.63;;
18732;SDS011;9495;51.210;2.934;2022-07-15T06:30:06;8.70;;;2.85;;
18732;SDS011;9495;51.210;2.934;2022-07-15T06:32:35;8.15;;;2.90;;
18732;SDS011;9495;51.210;2.934;2022-07-15T06:35:04;8.05;;;3.35;;
18732;SDS011;9495;51.210;2.934;2022-07-15T06:37:33;8.02;;;3.50;;
18732;SDS011;9495;51.210;2.934;2022-07-15T06:40:02;9.85;;;3.40;;
18732;SDS011;9495;51.210;2.934;2022-07-15T06:42:32;7.32;;;2.90;;
18732;SDS011;9495;51.210;2.934;2022-07-15T06:45:00;7.85;;;2.40;;
18732;SDS011;9495;51.210;2.934;2022-07-15T06:47:29;5.40;;;2.45;;
18732;SDS011;9495;51.210;2.934;2022-07-15T06:49:57;7.22;;;2.53;;
18732;SDS011;9495;51.210;2.934;2022-07-15T06:52:27;10.50;;;2.97;;
18732;SDS011;9495;51.210;2.934;2022-07-15T06:54:56;8.25;;;3.15;;
18732;SDS011;9495;51.210;2.934;2022-07-15T06:57:24;4.43;;;2.40;;
18732;SDS011;9495;51.210;2.934;2022-07-15T06:59:55;3.65;;;1.60;;
18732;SDS011;9495;51.210;2.934;2022-07-15T07:02:24;2.30;;;1.27;;
18732;SDS011;9495;51.210;2.934;2022-07-15T07:04:53;2.60;;;1.10;;
18732;SDS011;9495;51.210;2.934;2022-07-15T07:07:21;2.30;;;1.20;;
18732;SDS011;9495;51.210;2.934;2022-07-15T07:09:49;5.72;;;1.40;;
18732;SDS011;9495;51.210;2.934;2022-07-15T07:12:18;3.42;;;1.35;;
18732;SDS011;9495;51.210;2.934;2022-07-15T07:14:46;3.25;;;1.30;;
18732;SDS011;9495;51.210;2.934;2022-07-15T07:17:16;4.57;;;1.30;;
18732;SDS011;9495;51.210;2.934;2022-07-15T07:19:45;6.35;;;1.48;;
18732;SDS011;9495;51.210;2.934;2022-07-15T07:22:14;12.02;;;2.15;;
18732;SDS011;9495;51.210;2.934;2022-07-15T07:24:42;3.90;;;1.20;;
18732;SDS011;9495;51.210;2.934;2022-07-15T07:27:11;5.43;;;1.23;;
18732;SDS011;9495;51.210;2.934;2022-07-15T07:29:40;4.50;;;1.23;;
18732;SDS011;9495;51.210;2.934;2022-07-15T07:32:09;3.08;;;1.42;;
18732;SDS011;9495;51.210;2.934;2022-07-15T07:34:38;2.78;;;1.38;;
18732;SDS011;9495;51.210;2.934;2022-07-15T07:37:06;4.40;;;1.38;;
18732;SDS011;9495;51.210;2.934;2022-07-15T07:39:35;3.15;;;1.20;;
18732;SDS011;9495;51.210;2.934;2022-07-15T07:42:04;4.13;;;1.23;;
18732;SDS011;9495;51.210;2.934;2022-07-15T07:44:32;2.10;;;1.05;;
18732;SDS011;9495;51.210;2.934;2022-07-15T07:47:01;3.70;;;1.20;;
18732;SDS011;9495;51.210;2.934;2022-07-15T07:49:38;3.47;;;1.10;;
18732;SDS011;9495;51.210;2.934;2022-07-15T07:52:07;2.78;;;1.10;;
18732;SDS011;9495;51.210;2.934;2022-07-15T07:54:35;3.92;;;1.05;;
18732;SDS011;9495;51.210;2.934;2022-07-15T07:57:04;2.80;;;1.00;;
18732;SDS011;9495;51.210;2.934;2022-07-15T07:59:32;3.35;;;1.30;;
18732;SDS011;9495;51.210;2.934;2022-07-15T08:02:00;5.78;;;1.60;;
18732;SDS011;9495;51.210;2.934;2022-07-15T08:04:30;5.30;;;1.20;;
18732;SDS011;9495;51.210;2.934;2022-07-15T08:07:00;3.47;;;1.33;;
18732;SDS011;9495;51.210;2.934;2022-07-15T08:09:28;2.67;;;1.00;;
18732;SDS011;9495;51.210;2.934;2022-07-15T08:11:57;1.85;;;1.08;;
18732;SDS011;9495;51.210;2.934;2022-07-15T08:14:25;4.10;;;1.25;;
18732;SDS011;9495;51.210;2.934;2022-07-15T08:16:55;2.35;;;1.10;;
18732;SDS011;9495;51.210;2.934;2022-07-15T08:19:23;3.13;;;1.15;;
18732;SDS011;9495;51.210;2.934;2022-07-15T08:21:52;1.77;;;0.95;;
18732;SDS011;9495;51.210;2.934;2022-07-15T08:24:22;2.90;;;1.05;;
18732;SDS011;9495;51.210;2.934;2022-07-15T08:26:51;2.30;;;0.90;;
18732;SDS011;9495;51.210;2.934;2022-07-15T08:29:19;2.33;;;0.80;;
18732;SDS011;9495;51.210;2.934;2022-07-15T08:31:47;1.42;;;0.80;;
18732;SDS011;9495;51.210;2.934;2022-07-15T08:34:16;2.05;;;0.93;;
18732;SDS011;9495;51.210;2.934;2022-07-15T08:36:45;2.00;;;0.88;;
18732;SDS011;9495;51.210;2.934;2022-07-15T08:39:13;1.15;;;0.77;;
18732;SDS011;9495;51.210;2.934;2022-07-15T08:41:43;1.67;;;0.82;;
18732;SDS011;9495;51.210;2.934;2022-07-15T08:44:12;1.92;;;0.90;;
18732;SDS011;9495;51.210;2.934;2022-07-15T08:46:40;5.85;;;1.15;;
18732;SDS011;9495;51.210;2.934;2022-07-15T08:49:13;6.15;;;1.30;;
18732;SDS011;9495;51.210;2.934;2022-07-15T08:51:43;3.80;;;0.85;;
18732;SDS011;9495;51.210;2.934;2022-07-15T08:54:13;3.08;;;1.08;;
18732;SDS011;9495;51.210;2.934;2022-07-15T08:56:43;2.75;;;0.90;;
18732;SDS011;9495;51.210;2.934;2022-07-15T08:59:12;2.42;;;0.80;;
18732;SDS011;9495;51.210;2.934;2022-07-15T09:01:41;1.77;;;1.10;;
18732;SDS011;9495;51.210;2.934;2022-07-15T09:04:11;3.05;;;1.17;;
18732;SDS011;9495;51.210;2.934;2022-07-15T09:06:40;4.47;;;1.20;;
18732;SDS011;9495;51.210;2.934;2022-07-15T09:09:25;1.48;;;1.02;;
18732;SDS011;9495;51.210;2.934;2022-07-15T09:11:58;3.58;;;1.33;;
18732;SDS011;9495;51.210;2.934;2022-07-15T09:14:39;1.75;;;0.98;;
18732;SDS011;9495;51.210;2.934;2022-07-15T09:17:21;4.95;;;1.20;;
18732;SDS011;9495;51.210;2.934;2022-07-15T09:19:55;2.13;;;0.90;;
18732;SDS011;9495;51.210;2.934;2022-07-15T09:22:28;2.20;;;1.13;;
18732;SDS011;9495;51.210;2.934;2022-07-15T09:25:02;2.38;;;1.35;;
18732;SDS011;9495;51.210;2.934;2022-07-15T09:27:35;2.10;;;1.08;;
18732;SDS011;9495;51.210;2.934;2022-07-15T09:33:13;3.65;;;1.20;;
18732;SDS011;9495;51.210;2.934;2022-07-15T09:36:03;4.80;;;1.55;;
18732;SDS011;9495;51.210;2.934;2022-07-15T09:38:43;2.67;;;1.00;;
18732;SDS011;9495;51.210;2.934;2022-07-15T09:41:18;2.95;;;1.10;;
18732;SDS011;9495;51.210;2.934;2022-07-15T09:43:53;2.72;;;1.08;;
18732;SDS011;9495;51.210;2.934;2022-07-15T09:46:24;4.45;;;0.80;;
18732;SDS011;9495;51.210;2.934;2022-07-15T09:48:54;3.92;;;1.30;;
18732;SDS011;9495;51.210;2.934;2022-07-15T09:51:23;2.63;;;0.90;;
18732;SDS011;9495;51.210;2.934;2022-07-15T09:53:51;2.10;;;0.95;;
18732;SDS011;9495;51.210;2.934;2022-07-15T09:56:27;1.92;;;0.95;;
18732;SDS011;9495;51.210;2.934;2022-07-15T09:58:57;3.10;;;0.85;;
18732;SDS011;9495;51.210;2.934;2022-07-15T10:01:26;4.97;;;1.10;;
18732;SDS011;9495;51.210;2.934;2022-07-15T10:03:54;2.60;;;0.80;;
18732;SDS011;9495;51.210;2.934;2022-07-15T10:06:25;1.73;;;1.02;;
18732;SDS011;9495;51.210;2.934;2022-07-15T10:08:54;1.00;;;0.80;;
18732;SDS011;9495;51.210;2.934;2022-07-15T10:11:25;4.32;;;1.33;;
18732;SDS011;9495;51.210;2.934;2022-07-15T10:14:11;3.95;;;1.10;;
18732;SDS011;9495;51.210;2.934;2022-07-15T10:17:10;1.90;;;1.10;;
18732;SDS011;9495;51.210;2.934;2022-07-15T10:26:19;3.42;;;1.15;;
18732;SDS011;9495;51.210;2.934;2022-07-15T10:28:57;1.77;;;1.05;;
18732;SDS011;9495;51.210;2.934;2022-07-15T10:31:31;2.53;;;1.25;;
18732;SDS011;9495;51.210;2.934;2022-07-15T10:34:17;3.03;;;1.30;;
18732;SDS011;9495;51.210;2.934;2022-07-15T10:36:55;4.05;;;1.40;;
18732;SDS011;9495;51.210;2.934;2022-07-15T10:39:27;2.00;;;1.20;;
18732;SDS011;9495;51.210;2.934;2022-07-15T10:41:57;3.53;;;1.20;;
18732;SDS011;9495;51.210;2.934;2022-07-15T10:44:29;4.20;;;1.60;;
18732;SDS011;9495;51.210;2.934;2022-07-15T10:47:17;5.15;;;1.83;;
18732;SDS011;9495;51.210;2.934;2022-07-15T10:49:47;2.55;;;1.30;;
18732;SDS011;9495;51.210;2.934;2022-07-15T10:52:17;6.10;;;1.92;;
18732;SDS011;9495;51.210;2.934;2022-07-15T10:54:47;2.58;;;1.55;;
18732;SDS011;9495;51.210;2.934;2022-07-15T10:57:16;3.88;;;1.85;;
18732;SDS011;9495;51.210;2.934;2022-07-15T10:59:48;2.00;;;1.45;;
18732;SDS011;9495;51.210;2.934;2022-07-15T11:02:20;4.60;;;1.80;;
18732;SDS011;9495;51.210;2.934;2022-07-15T11:04:51;4.90;;;1.63;;
18732;SDS011;9495;51.210;2.934;2022-07-15T11:07:40;3.58;;;1.38;;
18732;SDS011;9495;51.210;2.934;2022-07-15T11:10:15;3.75;;;1.67;;
18732;SDS011;9495;51.210;2.934;2022-07-15T11:12:58;1.83;;;1.20;;
18732;SDS011;9495;51.210;2.934;2022-07-15T11:15:28;4.47;;;1.38;;
18732;SDS011;9495;51.210;2.934;2022-07-15T11:18:00;4.65;;;1.10;;
18732;SDS011;9495;51.210;2.934;2022-07-15T11:20:36;3.00;;;1.80;;
18732;SDS011;9495;51.210;2.934;2022-07-15T11:23:06;2.50;;;1.27;;
18732;SDS011;9495;51.210;2.934;2022-07-15T11:25:36;2.15;;;1.30;;
18732;SDS011;9495;51.210;2.934;2022-07-15T11:28:07;2.83;;;1.60;;
18732;SDS011;9495;51.210;2.934;2022-07-15T11:30:38;5.90;;;1.77;;
18732;SDS011;9495;51.210;2.934;2022-07-15T11:33:10;4.32;;;1.98;;
18732;SDS011;9495;51.210;2.934;2022-07-15T11:35:45;7.20;;;1.70;;
18732;SDS011;9495;51.210;2.934;2022-07-15T11:38:17;5.53;;;1.60;;
18732;SDS011;9495;51.210;2.934;2022-07-15T11:40:50;6.18;;;2.20;;
18732;SDS011;9495;51.210;2.934;2022-07-15T11:43:37;3.58;;;1.80;;
18732;SDS011;9495;51.210;2.934;2022-07-15T11:46:23;5.22;;;1.85;;
18732;SDS011;9495;51.210;2.934;2022-07-15T11:48:54;5.57;;;2.05;;
18732;SDS011;9495;51.210;2.934;2022-07-15T11:51:26;3.75;;;2.00;;
18732;SDS011;9495;51.210;2.934;2022-07-15T11:53:56;3.75;;;2.05;;
18732;SDS011;9495;51.210;2.934;2022-07-15T11:56:25;6.15;;;1.80;;
18732;SDS011;9495;51.210;2.934;2022-07-15T11:58:55;6.35;;;2.03;;
18732;SDS011;9495;51.210;2.934;2022-07-15T12:01:24;4.90;;;1.95;;
18732;SDS011;9495;51.210;2.934;2022-07-15T12:03:57;8.23;;;2.53;;
18732;SDS011;9495;51.210;2.934;2022-07-15T12:06:26;5.95;;;2.40;;
18732;SDS011;9495;51.210;2.934;2022-07-15T12:08:56;4.18;;;2.15;;
18732;SDS011;9495;51.210;2.934;2022-07-15T12:11:25;6.72;;;2.53;;
18732;SDS011;9495;51.210;2.934;2022-07-15T12:13:56;4.93;;;2.33;;
18732;SDS011;9495;51.210;2.934;2022-07-15T12:16:26;5.32;;;2.47;;
18732;SDS011;9495;51.210;2.934;2022-07-15T12:18:59;6.10;;;2.17;;
18732;SDS011;9495;51.210;2.934;2022-07-15T12:21:30;6.47;;;2.10;;
18732;SDS011;9495;51.210;2.934;2022-07-15T12:23:59;4.85;;;2.38;;
18732;SDS011;9495;51.210;2.934;2022-07-15T12:26:36;5.05;;;2.28;;
18732;SDS011;9495;51.210;2.934;2022-07-15T12:29:08;4.10;;;2.17;;
18732;SDS011;9495;51.210;2.934;2022-07-15T12:31:38;5.35;;;2.33;;
18732;SDS011;9495;51.210;2.934;2022-07-15T12:34:09;5.32;;;2.50;;
18732;SDS011;9495;51.210;2.934;2022-07-15T12:36:38;5.22;;;2.40;;
18732;SDS011;9495;51.210;2.934;2022-07-15T12:39:07;4.22;;;2.22;;
18732;SDS011;9495;51.210;2.934;2022-07-15T12:41:56;5.85;;;2.30;;
18732;SDS011;9495;51.210;2.934;2022-07-15T12:44:27;6.28;;;2.80;;
18732;SDS011;9495;51.210;2.934;2022-07-15T12:46:57;8.48;;;3.45;;
18732;SDS011;9495;51.210;2.934;2022-07-15T12:49:44;5.30;;;2.40;;
18732;SDS011;9495;51.210;2.934;2022-07-15T12:52:17;6.63;;;2.92;;
18732;SDS011;9495;51.210;2.934;2022-07-15T12:54:53;6.85;;;2.65;;
18732;SDS011;9495;51.210;2.934;2022-07-15T12:57:25;4.25;;;2.78;;
18732;SDS011;9495;51.210;2.934;2022-07-15T12:59:56;5.85;;;3.17;;
18732;SDS011;9495;51.210;2.934;2022-07-15T13:02:26;8.27;;;3.05;;
18732;SDS011;9495;51.210;2.934;2022-07-15T13:04:56;6.40;;;3.28;;
18732;SDS011;9495;51.210;2.934;2022-07-15T13:07:25;9.43;;;3.13;;
18732;SDS011;9495;51.210;2.934;2022-07-15T13:09:53;4.30;;;2.60;;
18732;SDS011;9495;51.210;2.934;2022-07-15T13:12:22;5.72;;;2.58;;
18732;SDS011;9495;51.210;2.934;2022-07-15T13:14:50;3.47;;;2.20;;
18732;SDS011;9495;51.210;2.934;2022-07-15T13:17:19;6.50;;;2.55;;
18732;SDS011;9495;51.210;2.934;2022-07-15T13:19:47;6.22;;;3.20;;
18732;SDS011;9495;51.210;2.934;2022-07-15T13:22:17;7.25;;;3.00;;
18732;SDS011;9495;51.210;2.934;2022-07-15T13:24:45;4.47;;;2.22;;
18732;SDS011;9495;51.210;2.934;2022-07-15T13:27:14;2.50;;;1.88;;
18732;SDS011;9495;51.210;2.934;2022-07-15T13:29:42;4.72;;;2.05;;
18732;SDS011;9495;51.210;2.934;2022-07-15T13:32:11;5.03;;;1.92;;
18732;SDS011;9495;51.210;2.934;2022-07-15T13:34:43;6.15;;;2.20;;
18732;SDS011;9495;51.210;2.934;2022-07-15T13:37:18;6.93;;;2.35;;
18732;SDS011;9495;51.210;2.934;2022-07-15T13:39:46;3.85;;;1.70;;
18732;SDS011;9495;51.210;2.934;2022-07-15T13:42:15;3.90;;;1.77;;
18732;SDS011;9495;51.210;2.934;2022-07-15T13:44:44;4.65;;;1.70;;
18732;SDS011;9495;51.210;2.934;2022-07-15T13:47:12;4.35;;;2.22;;
18732;SDS011;9495;51.210;2.934;2022-07-15T13:49:41;4.72;;;1.90;;
18732;SDS011;9495;51.210;2.934;2022-07-15T13:52:28;4.95;;;2.25;;
18732;SDS011;9495;51.210;2.934;2022-07-15T13:54:57;4.85;;;1.55;;
18732;SDS011;9495;51.210;2.934;2022-07-15T13:57:26;3.70;;;1.50;;
18732;SDS011;9495;51.210;2.934;2022-07-15T13:59:54;3.75;;;1.55;;
18732;SDS011;9495;51.210;2.934;2022-07-15T14:02:25;3.90;;;1.30;;
18732;SDS011;9495;51.210;2.934;2022-07-15T14:04:54;6.05;;;1.40;;
18732;SDS011;9495;51.210;2.934;2022-07-15T14:07:22;3.78;;;1.80;;
18732;SDS011;9495;51.210;2.934;2022-07-15T14:09:52;4.95;;;1.50;;
18732;SDS011;9495;51.210;2.934;2022-07-15T14:12:21;2.20;;;1.42;;
18732;SDS011;9495;51.210;2.934;2022-07-15T14:14:50;3.25;;;1.70;;
18732;SDS011;9495;51.210;2.934;2022-07-15T14:17:19;4.25;;;1.23;;
18732;SDS011;9495;51.210;2.934;2022-07-15T14:19:47;5.10;;;1.52;;
18732;SDS011;9495;51.210;2.934;2022-07-15T14:22:16;4.53;;;1.63;;
18732;SDS011;9495;51.210;2.934;2022-07-15T14:24:44;3.00;;;1.58;;
18732;SDS011;9495;51.210;2.934;2022-07-15T14:27:14;3.72;;;1.40;;
18732;SDS011;9495;51.210;2.934;2022-07-15T14:29:42;6.28;;;1.40;;
18732;SDS011;9495;51.210;2.934;2022-07-15T14:32:11;2.65;;;1.58;;
18732;SDS011;9495;51.210;2.934;2022-07-15T14:34:39;2.75;;;1.63;;
18732;SDS011;9495;51.210;2.934;2022-07-15T14:37:08;2.35;;;1.55;;
18732;SDS011;9495;51.210;2.934;2022-07-15T14:39:56;6.25;;;1.85;;
18732;SDS011;9495;51.210;2.934;2022-07-15T14:42:25;3.53;;;1.55;;
18732;SDS011;9495;51.210;2.934;2022-07-15T14:44:53;1.17;;;1.10;;
18732;SDS011;9495;51.210;2.934;2022-07-15T14:47:22;3.90;;;1.83;;
18732;SDS011;9495;51.210;2.934;2022-07-15T14:49:50;4.32;;;1.90;;
18732;SDS011;9495;51.210;2.934;2022-07-15T14:52:19;4.45;;;1.55;;
18732;SDS011;9495;51.210;2.934;2022-07-15T14:54:47;2.28;;;1.20;;
18732;SDS011;9495;51.210;2.934;2022-07-15T14:57:16;2.40;;;1.38;;
18732;SDS011;9495;51.210;2.934;2022-07-15T14:59:46;2.83;;;1.70;;
18732;SDS011;9495;51.210;2.934;2022-07-15T15:02:14;2.03;;;1.65;;
18732;SDS011;9495;51.210;2.934;2022-07-15T15:04:43;3.80;;;1.45;;
18732;SDS011;9495;51.210;2.934;2022-07-15T15:07:11;4.20;;;1.60;;
18732;SDS011;9495;51.210;2.934;2022-07-15T15:09:40;4.65;;;1.67;;
18732;SDS011;9495;51.210;2.934;2022-07-15T15:12:08;3.50;;;2.00;;
18732;SDS011;9495;51.210;2.934;2022-07-15T15:14:37;3.85;;;1.55;;
18732;SDS011;9495;51.210;2.934;2022-07-15T15:17:07;2.90;;;1.42;;
18732;SDS011;9495;51.210;2.934;2022-07-15T15:19:36;1.65;;;1.20;;
18732;SDS011;9495;51.210;2.934;2022-07-15T15:22:05;4.35;;;1.63;;
18732;SDS011;9495;51.210;2.934;2022-07-15T15:24:34;3.72;;;1.75;;
18732;SDS011;9495;51.210;2.934;2022-07-15T15:27:03;3.55;;;1.38;;